sensor_id;sensor_type;location;lat;lon;timestamp;pressure;altitude;pressure_sealevel;temperature;humidity
6393;BME280;3229;42.674;23.282;2022-07-29T00:01:38;94827.44;;;23.54;70.10
6393;BME280;3229;42.674;23.282;2022-07-29T00:04:05;94837.88;;;23.54;69.91
6393;BME280;3229;42.674;23.282;2022-07-29T00:06:32;94837.25;;;23.52;70.23
6393;BME280;3229;42.674;23.282;2022-07-29T00:09:00;94760.63;;;22.96;69.95
6393;BME280;3229;42.674;23.282;2022-07-29T00:11:27;94850.16;;;23.47;69.84
6393;BME280;3229;42.674;23.282;2022-07-29T00:13:54;94740.28;;;22.80;68.88
6393;BME280;3229;42.674;23.282;2022-07-29T00:16:21;94838.97;;;23.40;69.38
6393;BME280;3229;42.674;23.282;2022-07-29T00:18:48;94831.59;;;23.37;68.99
6393;BME280;3229;42.674;23.282;2022-07-29T00:21:15;94827.59;;;23.34;69.63
6393;BME280;3229;42.674;23.282;2022-07-29T00:23:42;94824.59;;;23.31;69.32
6393;BME280;3229;42.674;23.282;2022-07-29T00:26:10;94667.09;;;22.25;69.29
6393;BME280;3229;42.674;23.282;2022-07-29T00:28:37;94830.03;;;23.29;69.28
6393;BME280;3229;42.674;23.282;2022-07-29T00:31:04;94706.25;;;22.43;69.54
6393;BME280;3229;42.674;23.282;2022-07-29T00:33:31;94828.63;;;23.26;69.53
6393;BME280;3229;42.674;23.282;2022-07-29T00:35:58;94833.28;;;23.24;69.84
6393;BME280;3229;42.674;23.282;2022-07-29T00:38:24;94830.06;;;23.22;70.01
6393;BME280;3229;42.674;23.282;2022-07-29T00:40:50;94765.97;;;22.76;70.37
6393;BME280;3229;42.674;23.282;2022-07-29T00:43:19;94836.69;;;23.25;70.33
6393;BME280;3229;42.674;23.282;2022-07-29T00:45:46;94770.41;;;22.76;70.29
6393;BME280;3229;42.674;23.282;2022-07-29T00:48:13;94594.31;;;21.60;70.67
6393;BME280;3229;42.674;23.282;2022-07-29T00:50:39;94846.38;;;23.18;70.67
6393;BME280;3229;42.674;23.282;2022-07-29T00:53:07;94848.19;;;23.17;71.11
6393;BME280;3229;42.674;23.282;2022-07-29T00:55:34;94820.84;;;22.95;70.88
6393;BME280;3229;42.674;23.282;2022-07-29T00:58:02;94830.63;;;23.06;71.31
6393;BME280;3229;42.674;23.282;2022-07-29T01:00:30;94838.75;;;23.16;71.49
6393;BME280;3229;42.674;23.282;2022-07-29T01:02:58;94660.19;;;21.99;71.74
6393;BME280;3229;42.674;23.282;2022-07-29T01:05:26;94839.19;;;23.13;71.99
6393;BME280;3229;42.674;23.282;2022-07-29T01:07:54;94824.41;;;23.00;72.32
6393;BME280;3229;42.674;23.282;2022-07-29T01:10:23;94791.59;;;22.86;72.27
6393;BME280;3229;42.674;23.282;2022-07-29T01:12:52;94825.59;;;23.04;72.47
6393;BME280;3229;42.674;23.282;2022-07-29T01:15:21;94776.44;;;22.70;72.94
6393;BME280;3229;42.674;23.282;2022-07-29T01:17:56;94805.19;;;22.95;72.66
6393;BME280;3229;42.674;23.282;2022-07-29T01:20:39;94806.41;;;22.92;72.86
6393;BME280;3229;42.674;23.282;2022-07-29T01:23:28;94653.19;;;21.93;73.12
6393;BME280;3229;42.674;23.282;2022-07-29T01:26:17;94812.44;;;22.93;72.81
6393;BME280;3229;42.674;23.282;2022-07-29T01:28:58;94778.03;;;22.71;73.43
6393;BME280;3229;42.674;23.282;2022-07-29T01:31:31;94801.59;;;22.89;73.52
6393;BME280;3229;42.674;23.282;2022-07-29T01:34:03;94807.00;;;22.88;73.30
6393;BME280;3229;42.674;23.282;2022-07-29T01:36:35;94426.13;;;20.38;73.44
6393;BME280;3229;42.674;23.282;2022-07-29T01:39:10;94809.63;;;22.88;74.09
6393;BME280;3229;42.674;23.282;2022-07-29T01:41:41;94751.69;;;22.54;73.57
6393;BME280;3229;42.674;23.282;2022-07-29T01:44:19;94801.81;;;22.88;73.71
6393;BME280;3229;42.674;23.282;2022-07-29T01:46:51;94812.22;;;22.88;74.19
6393;BME280;3229;42.674;23.282;2022-07-29T01:49:22;94732.13;;;22.38;74.23
6393;BME280;3229;42.674;23.282;2022-07-29T01:51:54;94801.00;;;22.87;74.67
6393;BME280;3229;42.674;23.282;2022-07-29T01:54:28;94567.38;;;21.41;73.98
6393;BME280;3229;42.674;23.282;2022-07-29T01:56:58;94544.03;;;21.21;74.52
6393;BME280;3229;42.674;23.282;2022-07-29T01:59:29;94696.56;;;22.19;74.43
6393;BME280;3229;42.674;23.282;2022-07-29T02:01:58;94705.56;;;22.23;74.41
6393;BME280;3229;42.674;23.282;2022-07-29T02:04:26;94799.81;;;22.83;74.89
6393;BME280;3229;42.674;23.282;2022-07-29T02:06:56;94758.50;;;22.55;74.99
6393;BME280;3229;42.674;23.282;2022-07-29T02:09:24;94804.84;;;22.85;74.67
6393;BME280;3229;42.674;23.282;2022-07-29T02:11:53;94762.22;;;22.66;74.27
6393;BME280;3229;42.674;23.282;2022-07-29T02:14:23;94785.59;;;22.79;74.54
6393;BME280;3229;42.674;23.282;2022-07-29T02:16:54;94553.81;;;21.26;73.89
6393;BME280;3229;42.674;23.282;2022-07-29T02:19:25;94768.31;;;22.60;73.19
6393;BME280;3229;42.674;23.282;2022-07-29T02:21:54;94781.25;;;22.73;72.83
6393;BME280;3229;42.674;23.282;2022-07-29T02:24:23;94782.25;;;22.72;72.81
6393;BME280;3229;42.674;23.282;2022-07-29T02:26:53;94559.63;;;21.21;73.40
6393;BME280;3229;42.674;23.282;2022-07-29T02:29:23;94781.09;;;22.68;73.54
6393;BME280;3229;42.674;23.282;2022-07-29T02:31:53;94741.88;;;22.49;72.96
6393;BME280;3229;42.674;23.282;2022-07-29T02:34:21;94663.38;;;22.01;73.00
6393;BME280;3229;42.674;23.282;2022-07-29T02:36:50;94708.53;;;22.33;73.29
6393;BME280;3229;42.674;23.282;2022-07-29T02:39:18;94651.78;;;21.97;73.58
6393;BME280;3229;42.674;23.282;2022-07-29T02:41:47;94657.41;;;21.94;74.24
6393;BME280;3229;42.674;23.282;2022-07-29T02:44:17;94660.19;;;21.99;74.03
6393;BME280;3229;42.674;23.282;2022-07-29T02:46:50;94643.78;;;21.92;73.73
6393;BME280;3229;42.674;23.282;2022-07-29T02:49:28;94587.16;;;21.49;73.70
6393;BME280;3229;42.674;23.282;2022-07-29T02:52:00;94592.53;;;21.54;73.88
6393;BME280;3229;42.674;23.282;2022-07-29T02:54:41;94687.56;;;22.15;74.01
6393;BME280;3229;42.674;23.282;2022-07-29T02:57:14;94762.88;;;22.61;74.05
6393;BME280;3229;42.674;23.282;2022-07-29T02:59:45;94761.44;;;22.65;73.61
6393;BME280;3229;42.674;23.282;2022-07-29T03:02:15;94758.25;;;22.63;73.58
6393;BME280;3229;42.674;23.282;2022-07-29T03:04:44;94496.53;;;20.94;73.58
6393;BME280;3229;42.674;23.282;2022-07-29T03:07:15;94738.53;;;22.42;73.55
6393;BME280;3229;42.674;23.282;2022-07-29T03:09:45;94697.78;;;22.16;73.62
6393;BME280;3229;42.674;23.282;2022-07-29T03:12:13;94767.91;;;22.56;73.85
6393;BME280;3229;42.674;23.282;2022-07-29T03:14:41;94765.31;;;22.56;73.82
6393;BME280;3229;42.674;23.282;2022-07-29T03:17:09;94763.28;;;22.58;73.61
6393;BME280;3229;42.674;23.282;2022-07-29T03:19:36;94772.34;;;22.56;73.88
6393;BME280;3229;42.674;23.282;2022-07-29T03:22:05;94780.56;;;22.52;73.85
6393;BME280;3229;42.674;23.282;2022-07-29T03:24:35;94673.91;;;21.81;74.18
6393;BME280;3229;42.674;23.282;2022-07-29T03:27:03;94772.56;;;22.47;74.34
6393;BME280;3229;42.674;23.282;2022-07-29T03:29:31;94728.66;;;22.13;74.28
6393;BME280;3229;42.674;23.282;2022-07-29T03:32:02;94653.00;;;21.56;74.10
6393;BME280;3229;42.674;23.282;2022-07-29T03:34:30;94735.88;;;22.04;73.96
6393;BME280;3229;42.674;23.282;2022-07-29T03:36:58;94738.28;;;22.12;74.35
6393;BME280;3229;42.674;23.282;2022-07-29T03:39:30;94727.47;;;22.02;74.50
6393;BME280;3229;42.674;23.282;2022-07-29T03:41:59;94674.16;;;21.66;74.28
6393;BME280;3229;42.674;23.282;2022-07-29T03:44:27;94790.66;;;22.36;74.38
6393;BME280;3229;42.674;23.282;2022-07-29T03:46:56;94663.22;;;21.51;74.47
6393;BME280;3229;42.674;23.282;2022-07-29T03:49:26;94691.78;;;21.64;74.87
6393;BME280;3229;42.674;23.282;2022-07-29T03:51:53;94779.84;;;22.32;74.87
6393;BME280;3229;42.674;23.282;2022-07-29T03:54:20;94662.03;;;21.47;74.90
6393;BME280;3229;42.674;23.282;2022-07-29T03:56:50;94777.72;;;22.22;75.09
6393;BME280;3229;42.674;23.282;2022-07-29T03:59:19;94588.72;;;20.98;75.28
6393;BME280;3229;42.674;23.282;2022-07-29T04:01:48;94702.22;;;21.64;75.29
6393;BME280;3229;42.674;23.282;2022-07-29T04:04:16;94598.69;;;21.01;75.01
6393;BME280;3229;42.674;23.282;2022-07-29T04:06:45;94763.94;;;22.02;75.22
6393;BME280;3229;42.674;23.282;2022-07-29T04:09:13;94490.06;;;20.32;75.40
6393;BME280;3229;42.674;23.282;2022-07-29T04:11:41;94792.13;;;22.25;75.54
6393;BME280;3229;42.674;23.282;2022-07-29T04:14:09;94619.84;;;21.18;75.61
6393;BME280;3229;42.674;23.282;2022-07-29T04:16:36;94678.84;;;21.51;75.65
6393;BME280;3229;42.674;23.282;2022-07-29T04:19:03;94786.31;;;22.23;75.88
6393;BME280;3229;42.674;23.282;2022-07-29T04:21:30;94785.34;;;22.24;76.15
6393;BME280;3229;42.674;23.282;2022-07-29T04:23:57;94783.31;;;22.26;76.50
6393;BME280;3229;42.674;23.282;2022-07-29T04:26:24;94748.53;;;22.00;76.54
6393;BME280;3229;42.674;23.282;2022-07-29T04:28:51;94585.13;;;20.99;76.42
6393;BME280;3229;42.674;23.282;2022-07-29T04:31:19;94582.91;;;20.96;76.58
6393;BME280;3229;42.674;23.282;2022-07-29T04:33:46;94754.13;;;22.04;76.74
6393;BME280;3229;42.674;23.282;2022-07-29T04:36:13;94803.53;;;22.31;76.77
6393;BME280;3229;42.674;23.282;2022-07-29T04:38:40;94701.78;;;21.67;76.60
6393;BME280;3229;42.674;23.282;2022-07-29T04:41:07;94800.50;;;22.34;76.72
6393;BME280;3229;42.674;23.282;2022-07-29T04:43:34;94771.13;;;22.20;76.47
6393;BME280;3229;42.674;23.282;2022-07-29T04:46:01;94626.44;;;21.27;76.20
6393;BME280;3229;42.674;23.282;2022-07-29T04:48:30;94804.88;;;22.46;75.86
6393;BME280;3229;42.674;23.282;2022-07-29T04:50:57;94809.44;;;22.51;75.86
6393;BME280;3229;42.674;23.282;2022-07-29T04:53:24;94745.88;;;22.14;76.02
6393;BME280;3229;42.674;23.282;2022-07-29T04:55:51;94650.00;;;21.52;75.48
6393;BME280;3229;42.674;23.282;2022-07-29T04:58:18;94776.81;;;22.42;75.60
6393;BME280;3229;42.674;23.282;2022-07-29T05:00:45;94749.44;;;22.26;75.47
6393;BME280;3229;42.674;23.282;2022-07-29T05:03:12;94807.16;;;22.68;75.69
6393;BME280;3229;42.674;23.282;2022-07-29T05:05:41;94814.97;;;22.68;76.41
6393;BME280;3229;42.674;23.282;2022-07-29T05:08:09;94754.56;;;22.39;75.79
6393;BME280;3229;42.674;23.282;2022-07-29T05:10:36;94760.75;;;22.45;75.39
6393;BME280;3229;42.674;23.282;2022-07-29T05:13:04;94815.06;;;22.86;75.07
6393;BME280;3229;42.674;23.282;2022-07-29T05:15:32;94813.66;;;22.90;75.00
6393;BME280;3229;42.674;23.282;2022-07-29T05:17:59;94812.81;;;22.96;74.97
6393;BME280;3229;42.674;23.282;2022-07-29T05:20:26;94765.44;;;22.68;74.77
6393;BME280;3229;42.674;23.282;2022-07-29T05:22:59;94786.78;;;22.90;75.24
6393;BME280;3229;42.674;23.282;2022-07-29T05:25:28;94789.66;;;23.07;76.37
6393;BME280;3229;42.674;23.282;2022-07-29T05:27:55;94796.41;;;23.14;75.17
6393;BME280;3229;42.674;23.282;2022-07-29T05:30:23;94596.28;;;21.96;75.61
6393;BME280;3229;42.674;23.282;2022-07-29T05:32:50;94813.28;;;23.62;75.37
6393;BME280;3229;42.674;23.282;2022-07-29T05:35:18;94756.63;;;23.44;74.63
6393;BME280;3229;42.674;23.282;2022-07-29T05:37:47;94794.19;;;23.86;72.80
6393;BME280;3229;42.674;23.282;2022-07-29T05:40:16;94812.13;;;24.01;70.67
6393;BME280;3229;42.674;23.282;2022-07-29T05:42:43;94825.19;;;24.19;70.69
6393;BME280;3229;42.674;23.282;2022-07-29T05:45:13;94809.75;;;24.29;70.66
6393;BME280;3229;42.674;23.282;2022-07-29T05:47:40;94787.41;;;24.34;70.49
6393;BME280;3229;42.674;23.282;2022-07-29T05:50:08;94795.03;;;24.53;69.67
6393;BME280;3229;42.674;23.282;2022-07-29T05:52:35;94649.59;;;23.81;68.48
6393;BME280;3229;42.674;23.282;2022-07-29T05:55:02;94541.81;;;23.25;68.15
6393;BME280;3229;42.674;23.282;2022-07-29T05:57:32;94833.44;;;25.25;67.89
6393;BME280;3229;42.674;23.282;2022-07-29T05:59:59;94833.69;;;25.47;67.20
6393;BME280;3229;42.674;23.282;2022-07-29T06:02:26;94653.22;;;24.51;66.04
6393;BME280;3229;42.674;23.282;2022-07-29T06:04:53;94680.81;;;24.89;65.85
6393;BME280;3229;42.674;23.282;2022-07-29T06:07:20;94811.41;;;25.91;64.69
6393;BME280;3229;42.674;23.282;2022-07-29T06:09:48;94800.44;;;25.94;64.45
6393;BME280;3229;42.674;23.282;2022-07-29T06:12:15;94833.91;;;26.27;63.52
6393;BME280;3229;42.674;23.282;2022-07-29T06:14:43;94762.63;;;26.02;61.52
6393;BME280;3229;42.674;23.282;2022-07-29T06:17:10;94762.50;;;26.09;60.35
6393;BME280;3229;42.674;23.282;2022-07-29T06:19:38;94833.28;;;26.61;59.82
6393;BME280;3229;42.674;23.282;2022-07-29T06:22:05;94828.34;;;26.64;60.36
6393;BME280;3229;42.674;23.282;2022-07-29T06:24:33;94597.19;;;25.18;60.36
6393;BME280;3229;42.674;23.282;2022-07-29T06:27:00;94781.72;;;26.55;58.81
6393;BME280;3229;42.674;23.282;2022-07-29T06:29:27;94643.16;;;25.77;59.42
6393;BME280;3229;42.674;23.282;2022-07-29T06:31:56;94822.44;;;27.02;58.92
6393;BME280;3229;42.674;23.282;2022-07-29T06:34:23;94831.28;;;27.25;58.76
6393;BME280;3229;42.674;23.282;2022-07-29T06:36:51;94808.03;;;27.17;58.23
6393;BME280;3229;42.674;23.282;2022-07-29T06:39:18;94833.97;;;27.47;58.26
6393;BME280;3229;42.674;23.282;2022-07-29T06:41:46;94768.78;;;27.27;57.35
6393;BME280;3229;42.674;23.282;2022-07-29T06:44:13;94839.13;;;27.75;57.12
6393;BME280;3229;42.674;23.282;2022-07-29T06:46:40;94824.38;;;27.91;56.36
6393;BME280;3229;42.674;23.282;2022-07-29T06:49:10;94712.69;;;27.33;55.76
6393;BME280;3229;42.674;23.282;2022-07-29T06:51:39;94820.56;;;28.21;54.95
6393;BME280;3229;42.674;23.282;2022-07-29T06:54:07;94827.06;;;28.35;54.13
6393;BME280;3229;42.674;23.282;2022-07-29T06:56:34;94788.00;;;28.27;53.58
6393;BME280;3229;42.674;23.282;2022-07-29T06:59:03;94680.56;;;27.70;54.12
6393;BME280;3229;42.674;23.282;2022-07-29T07:01:30;94653.97;;;27.66;52.89
6393;BME280;3229;42.674;23.282;2022-07-29T07:03:57;94728.88;;;28.30;52.38
6393;BME280;3229;42.674;23.282;2022-07-29T07:06:28;94818.28;;;29.00;53.18
6393;BME280;3229;42.674;23.282;2022-07-29T07:08:56;94624.28;;;27.88;52.02
6393;BME280;3229;42.674;23.282;2022-07-29T07:11:23;94626.56;;;28.06;51.71
6393;BME280;3229;42.674;23.282;2022-07-29T07:13:51;94637.44;;;28.15;51.81
6393;BME280;3229;42.674;23.282;2022-07-29T07:16:18;94820.19;;;29.37;51.02
6393;BME280;3229;42.674;23.282;2022-07-29T07:18:47;94813.44;;;29.52;51.19
6393;BME280;3229;42.674;23.282;2022-07-29T07:21:14;94816.16;;;29.62;50.96
6393;BME280;3229;42.674;23.282;2022-07-29T07:23:43;94707.63;;;28.95;50.98
6393;BME280;3229;42.674;23.282;2022-07-29T07:26:11;94788.22;;;29.61;51.21
6393;BME280;3229;42.674;23.282;2022-07-29T07:28:45;94766.00;;;29.52;50.59
6393;BME280;3229;42.674;23.282;2022-07-29T07:31:13;94716.06;;;29.30;50.16
6393;BME280;3229;42.674;23.282;2022-07-29T07:33:44;94729.34;;;29.45;50.30
6393;BME280;3229;42.674;23.282;2022-07-29T07:36:12;94720.88;;;29.43;50.24
6393;BME280;3229;42.674;23.282;2022-07-29T07:38:43;94811.44;;;30.06;50.15
6393;BME280;3229;42.674;23.282;2022-07-29T07:41:14;94590.06;;;28.74;49.79
6393;BME280;3229;42.674;23.282;2022-07-29T07:43:42;94504.66;;;28.17;49.03
6393;BME280;3229;42.674;23.282;2022-07-29T07:46:10;94811.44;;;30.06;49.33
6393;BME280;3229;42.674;23.282;2022-07-29T07:48:37;94808.00;;;30.11;49.52
6393;BME280;3229;42.674;23.282;2022-07-29T07:51:06;94644.50;;;29.06;49.71
6393;BME280;3229;42.674;23.282;2022-07-29T07:53:34;94782.66;;;30.05;49.04
6393;BME280;3229;42.674;23.282;2022-07-29T07:56:03;94619.00;;;29.06;49.21
6393;BME280;3229;42.674;23.282;2022-07-29T07:58:31;94807.66;;;30.44;48.36
6393;BME280;3229;42.674;23.282;2022-07-29T08:01:00;94812.41;;;30.47;48.47
6393;BME280;3229;42.674;23.282;2022-07-29T08:03:27;94750.59;;;30.23;48.03
6393;BME280;3229;42.674;23.282;2022-07-29T08:05:54;94811.66;;;30.62;48.39
6393;BME280;3229;42.674;23.282;2022-07-29T08:08:22;94673.66;;;29.84;47.40
6393;BME280;3229;42.674;23.282;2022-07-29T08:10:49;94803.00;;;30.77;47.49
6393;BME280;3229;42.674;23.282;2022-07-29T08:13:23;94810.69;;;30.84;46.97
6393;BME280;3229;42.674;23.282;2022-07-29T08:15:50;94758.31;;;30.55;46.45
6393;BME280;3229;42.674;23.282;2022-07-29T08:18:23;94573.81;;;29.35;46.84
6393;BME280;3229;42.674;23.282;2022-07-29T08:20:50;94698.06;;;30.21;46.35
6393;BME280;3229;42.674;23.282;2022-07-29T08:23:16;94811.75;;;31.03;45.84
6393;BME280;3229;42.674;23.282;2022-07-29T08:25:44;94815.44;;;31.07;45.92
6393;BME280;3229;42.674;23.282;2022-07-29T08:28:11;94643.34;;;29.96;45.56
6393;BME280;3229;42.674;23.282;2022-07-29T08:30:39;94809.09;;;30.98;45.66
6393;BME280;3229;42.674;23.282;2022-07-29T08:33:06;94692.78;;;30.21;45.85
6393;BME280;3229;42.674;23.282;2022-07-29T08:35:33;94667.94;;;30.07;45.58
6393;BME280;3229;42.674;23.282;2022-07-29T08:38:00;94782.69;;;30.88;45.44
6393;BME280;3229;42.674;23.282;2022-07-29T08:40:28;94584.75;;;29.59;45.52
6393;BME280;3229;42.674;23.282;2022-07-29T08:43:04;94740.09;;;30.59;45.33
6393;BME280;3229;42.674;23.282;2022-07-29T08:45:43;94761.53;;;30.72;45.54
6393;BME280;3229;42.674;23.282;2022-07-29T08:48:12;94743.03;;;30.67;45.47
6393;BME280;3229;42.674;23.282;2022-07-29T08:50:39;94786.13;;;31.04;45.19
6393;BME280;3229;42.674;23.282;2022-07-29T08:53:07;94804.09;;;31.17;44.76
6393;BME280;3229;42.674;23.282;2022-07-29T08:55:39;94802.78;;;31.19;45.23
6393;BME280;3229;42.674;23.282;2022-07-29T08:58:07;94663.78;;;30.37;45.07
6393;BME280;3229;42.674;23.282;2022-07-29T09:00:35;94798.06;;;31.32;43.85
6393;BME280;3229;42.674;23.282;2022-07-29T09:03:05;94735.16;;;30.93;44.16
6393;BME280;3229;42.674;23.282;2022-07-29T09:05:32;94780.06;;;31.18;44.55
6393;BME280;3229;42.674;23.282;2022-07-29T09:07:59;94763.41;;;31.18;44.12
6393;BME280;3229;42.674;23.282;2022-07-29T09:10:27;94678.59;;;30.63;44.04
6393;BME280;3229;42.674;23.282;2022-07-29T09:12:55;94782.19;;;31.37;43.59
6393;BME280;3229;42.674;23.282;2022-07-29T09:15:23;94771.09;;;31.30;43.88
6393;BME280;3229;42.674;23.282;2022-07-29T09:17:50;94781.66;;;31.45;43.85
6393;BME280;3229;42.674;23.282;2022-07-29T09:20:20;94702.13;;;30.95;43.67
6393;BME280;3229;42.674;23.282;2022-07-29T09:22:47;94788.28;;;31.32;43.38
6393;BME280;3229;42.674;23.282;2022-07-29T09:25:15;94759.16;;;31.17;43.69
6393;BME280;3229;42.674;23.282;2022-07-29T09:28:05;94757.31;;;31.17;43.87
6393;BME280;3229;42.674;23.282;2022-07-29T09:30:34;94739.91;;;31.11;44.10
6393;BME280;3229;42.674;23.282;2022-07-29T09:33:02;94776.88;;;31.42;43.89
6393;BME280;3229;42.674;23.282;2022-07-29T09:35:31;94776.88;;;31.42;43.92
6393;BME280;3229;42.674;23.282;2022-07-29T09:38:09;94778.47;;;31.43;43.86
6393;BME280;3229;42.674;23.282;2022-07-29T09:40:37;94771.59;;;31.47;43.64
6393;BME280;3229;42.674;23.282;2022-07-29T09:43:10;94659.88;;;30.75;43.55
6393;BME280;3229;42.674;23.282;2022-07-29T09:45:37;94619.47;;;30.54;43.74
6393;BME280;3229;42.674;23.282;2022-07-29T09:48:13;94735.94;;;31.29;43.20
6393;BME280;3229;42.674;23.282;2022-07-29T09:50:44;94754.41;;;31.24;42.73
6393;BME280;3229;42.674;23.282;2022-07-29T09:53:12;94770.81;;;31.36;42.46
6393;BME280;3229;42.674;23.282;2022-07-29T09:55:55;94770.28;;;31.34;42.64
6393;BME280;3229;42.674;23.282;2022-07-29T09:58:22;94543.69;;;29.88;43.01
6393;BME280;3229;42.674;23.282;2022-07-29T10:00:51;94763.41;;;31.38;42.73
6393;BME280;3229;42.674;23.282;2022-07-29T10:03:21;94758.91;;;31.39;42.83
6393;BME280;3229;42.674;23.282;2022-07-29T10:08:42;94743.59;;;31.41;43.42
6393;BME280;3229;42.674;23.282;2022-07-29T10:11:10;94714.00;;;31.03;43.33
6393;BME280;3229;42.674;23.282;2022-07-29T10:13:38;94703.69;;;31.07;43.32
6393;BME280;3229;42.674;23.282;2022-07-29T10:16:06;94740.16;;;31.30;43.29
6393;BME280;3229;42.674;23.282;2022-07-29T10:18:33;94736.19;;;31.33;43.44
6393;BME280;3229;42.674;23.282;2022-07-29T10:21:01;94738.31;;;31.36;43.68
6393;BME280;3229;42.674;23.282;2022-07-29T10:23:29;94739.88;;;31.42;43.45
6393;BME280;3229;42.674;23.282;2022-07-29T10:25:58;94715.56;;;31.24;43.09
6393;BME280;3229;42.674;23.282;2022-07-29T10:28:25;94568.78;;;30.21;43.09
6393;BME280;3229;42.674;23.282;2022-07-29T10:31:00;94718.72;;;31.21;43.18
6393;BME280;3229;42.674;23.282;2022-07-29T10:33:41;94724.56;;;31.34;43.31
6393;BME280;3229;42.674;23.282;2022-07-29T10:36:27;94727.75;;;31.36;43.74
6393;BME280;3229;42.674;23.282;2022-07-29T10:39:05;94720.59;;;31.36;43.84
6393;BME280;3229;42.674;23.282;2022-07-29T10:42:05;94669.38;;;30.86;43.53
6393;BME280;3229;42.674;23.282;2022-07-29T10:44:35;94601.22;;;30.53;43.60
6393;BME280;3229;42.674;23.282;2022-07-29T10:47:06;94663.56;;;30.94;43.76
6393;BME280;3229;42.674;23.282;2022-07-29T10:49:34;94717.97;;;31.31;43.76
6393;BME280;3229;42.674;23.282;2022-07-29T10:52:04;94571.16;;;30.18;42.90
6393;BME280;3229;42.674;23.282;2022-07-29T10:54:51;94697.88;;;31.20;42.97
6393;BME280;3229;42.674;23.282;2022-07-29T10:57:28;94702.06;;;31.26;42.89
6393;BME280;3229;42.674;23.282;2022-07-29T11:00:26;94668.28;;;31.08;43.43
6393;BME280;3229;42.674;23.282;2022-07-29T11:02:53;94697.59;;;31.21;43.61
6393;BME280;3229;42.674;23.282;2022-07-29T11:05:23;94676.75;;;31.15;43.87
6393;BME280;3229;42.674;23.282;2022-07-29T11:08:16;94683.88;;;31.19;43.96
6393;BME280;3229;42.674;23.282;2022-07-29T11:10:45;94684.38;;;31.21;44.14
6393;BME280;3229;42.674;23.282;2022-07-29T11:13:47;94679.66;;;31.29;44.09
6393;BME280;3229;42.674;23.282;2022-07-29T11:16:16;94698.91;;;31.24;43.82
6393;BME280;3229;42.674;23.282;2022-07-29T11:19:20;94684.94;;;31.29;43.88
6393;BME280;3229;42.674;23.282;2022-07-29T11:21:48;94688.91;;;31.31;43.62
6393;BME280;3229;42.674;23.282;2022-07-29T11:24:19;94656.13;;;31.22;43.61
6393;BME280;3229;42.674;23.282;2022-07-29T11:29:53;94679.91;;;31.27;43.02
6393;BME280;3229;42.674;23.282;2022-07-29T11:32:22;94413.94;;;29.61;42.85
6393;BME280;3229;42.674;23.282;2022-07-29T11:37:39;94670.91;;;31.33;42.97
6393;BME280;3229;42.674;23.282;2022-07-29T11:40:16;94678.88;;;31.28;42.66
6393;BME280;3229;42.674;23.282;2022-07-29T11:42:45;94556.13;;;30.49;42.35
6393;BME280;3229;42.674;23.282;2022-07-29T11:45:16;94512.06;;;30.19;42.86
6393;BME280;3229;42.674;23.282;2022-07-29T11:47:52;94664.31;;;31.20;42.76
6393;BME280;3229;42.674;23.282;2022-07-29T11:50:34;94662.44;;;31.26;43.38
6393;BME280;3229;42.674;23.282;2022-07-29T11:53:03;94608.84;;;31.00;42.62
6393;BME280;3229;42.674;23.282;2022-07-29T11:55:30;94590.13;;;30.86;42.48
6393;BME280;3229;42.674;23.282;2022-07-29T11:58:01;94639.22;;;31.18;42.44
6393;BME280;3229;42.674;23.282;2022-07-29T12:00:31;94622.03;;;31.15;42.40
6393;BME280;3229;42.674;23.282;2022-07-29T12:03:00;94498.31;;;30.37;42.23
6393;BME280;3229;42.674;23.282;2022-07-29T12:05:33;94659.28;;;31.39;42.09
6393;BME280;3229;42.674;23.282;2022-07-29T12:08:13;94657.94;;;31.42;42.25
6393;BME280;3229;42.674;23.282;2022-07-29T12:10:42;94658.22;;;31.40;41.84
6393;BME280;3229;42.674;23.282;2022-07-29T12:13:10;94622.00;;;31.26;42.00
6393;BME280;3229;42.674;23.282;2022-07-29T12:15:39;94653.94;;;31.50;41.88
6393;BME280;3229;42.674;23.282;2022-07-29T12:18:11;94592.22;;;31.10;41.92
6393;BME280;3229;42.674;23.282;2022-07-29T12:20:38;94594.84;;;31.10;41.06
6393;BME280;3229;42.674;23.282;2022-07-29T12:23:06;94654.75;;;31.50;41.49
6393;BME280;3229;42.674;23.282;2022-07-29T12:25:35;94622.53;;;31.28;41.37
6393;BME280;3229;42.674;23.282;2022-07-29T12:28:04;94658.44;;;31.54;41.63
6393;BME280;3229;42.674;23.282;2022-07-29T12:30:38;94665.03;;;31.57;41.57
6393;BME280;3229;42.674;23.282;2022-07-29T12:33:14;94651.81;;;31.57;41.96
6393;BME280;3229;42.674;23.282;2022-07-29T12:35:43;94648.38;;;31.56;41.76
6393;BME280;3229;42.674;23.282;2022-07-29T12:38:11;94608.56;;;31.32;41.51
6393;BME280;3229;42.674;23.282;2022-07-29T12:40:38;94651.25;;;31.60;41.03
6393;BME280;3229;42.674;23.282;2022-07-29T12:43:07;94649.19;;;31.57;40.75
6393;BME280;3229;42.674;23.282;2022-07-29T12:45:35;94644.41;;;31.59;40.42
6393;BME280;3229;42.674;23.282;2022-07-29T12:48:04;94499.84;;;30.69;40.81
6393;BME280;3229;42.674;23.282;2022-07-29T12:50:34;94507.25;;;30.67;40.65
6393;BME280;3229;42.674;23.282;2022-07-29T12:53:11;94589.84;;;31.13;40.23
6393;BME280;3229;42.674;23.282;2022-07-29T12:55:40;94630.66;;;31.52;40.92
6393;BME280;3229;42.674;23.282;2022-07-29T12:58:08;94630.66;;;31.52;40.67
6393;BME280;3229;42.674;23.282;2022-07-29T13:00:34;94627.53;;;31.44;40.53
6393;BME280;3229;42.674;23.282;2022-07-29T13:03:03;94623.81;;;31.51;40.63
6393;BME280;3229;42.674;23.282;2022-07-29T13:05:41;94627.78;;;31.53;40.91
6393;BME280;3229;42.674;23.282;2022-07-29T13:08:12;94576.31;;;31.20;40.54
6393;BME280;3229;42.674;23.282;2022-07-29T13:10:40;94625.38;;;31.57;40.61
6393;BME280;3229;42.674;23.282;2022-07-29T13:13:08;94613.47;;;31.59;40.69
6393;BME280;3229;42.674;23.282;2022-07-29T13:15:36;94376.22;;;30.06;40.24
6393;BME280;3229;42.674;23.282;2022-07-29T13:18:06;94620.06;;;31.62;40.56
6393;BME280;3229;42.674;23.282;2022-07-29T13:20:52;94607.09;;;31.60;40.44
6393;BME280;3229;42.674;23.282;2022-07-29T13:23:19;94562.28;;;31.24;40.30
6393;BME280;3229;42.674;23.282;2022-07-29T13:25:46;94610.81;;;31.59;40.66
6393;BME280;3229;42.674;23.282;2022-07-29T13:28:13;94608.72;;;31.61;40.19
6393;BME280;3229;42.674;23.282;2022-07-29T13:30:41;94600.22;;;31.64;40.37
6393;BME280;3229;42.674;23.282;2022-07-29T13:33:09;94582.25;;;31.56;40.56